createdAt,value
2022-08-26T00:01:24.342Z,4.32
2022-08-26T00:03:56.454Z,4.45
2022-08-26T00:06:23.065Z,4.47
2022-08-26T00:08:49.589Z,4.63
2022-08-26T00:11:16.463Z,4.25
2022-08-26T00:13:57.625Z,4.40
2022-08-26T00:16:26.835Z,4.50
2022-08-26T00:18:54.214Z,4.43
2022-08-26T00:21:20.911Z,4.63
2022-08-26T00:23:48.263Z,4.40
2022-08-26T00:26:15.508Z,4.82
2022-08-26T00:28:42.372Z,4.50
2022-08-26T00:31:10.862Z,5.15
2022-08-26T00:33:39.191Z,4.88
2022-08-26T00:36:06.777Z,4.80
2022-08-26T00:38:34.944Z,4.25
2022-08-26T00:41:05.552Z,5.10
2022-08-26T00:43:46.291Z,4.70
2022-08-26T00:46:16.378Z,4.95
2022-08-26T00:48:46.629Z,4.93
2022-08-26T00:51:19.657Z,5.20
2022-08-26T00:53:52.037Z,5.13
2022-08-26T00:56:47.114Z,4.45
2022-08-26T00:59:17.610Z,4.55
2022-08-26T01:01:44.362Z,5.05
2022-08-26T01:04:15.553Z,5.13
2022-08-26T01:06:42.437Z,4.55
2022-08-26T01:09:11.784Z,4.45
2022-08-26T01:11:38.676Z,4.78
2022-08-26T01:14:07.868Z,6.05
2022-08-26T01:16:35.591Z,4.47
2022-08-26T01:19:10.317Z,4.70
2022-08-26T01:21:44.555Z,4.68
2022-08-26T01:24:11.924Z,4.45
2022-08-26T01:26:43.328Z,4.75
2022-08-26T01:29:15.663Z,5.05
2022-08-26T01:31:49.577Z,4.72
2022-08-26T01:34:23.346Z,5.22
2022-08-26T01:36:56.984Z,4.57
2022-08-26T01:39:23.534Z,4.80
2022-08-26T01:41:54.309Z,4.13
2022-08-26T01:44:25.831Z,4.40
2022-08-26T01:46:54.852Z,4.60
2022-08-26T01:49:23.126Z,4.07
2022-08-26T01:51:55.488Z,4.45
2022-08-26T01:54:23.230Z,4.60
2022-08-26T01:56:52.280Z,4.93
2022-08-26T01:59:20.243Z,5.00
2022-08-26T02:01:48.775Z,4.55
2022-08-26T02:04:21.380Z,4.47
2022-08-26T02:06:48.656Z,4.45
2022-08-26T02:09:16.432Z,4.50
2022-08-26T02:11:43.361Z,4.72
2022-08-26T02:14:13.420Z,4.57
2022-08-26T02:16:42.937Z,4.63
2022-08-26T02:19:17.074Z,4.97
2022-08-26T02:21:45.946Z,4.72
2022-08-26T02:24:21.284Z,4.57
2022-08-26T02:26:48.576Z,4.47
2022-08-26T02:29:26.533Z,4.80
2022-08-26T02:31:55.562Z,4.97
2022-08-26T02:34:28.139Z,5.43
2022-08-26T02:37:01.179Z,4.95
2022-08-26T02:39:29.549Z,5.25
2022-08-26T02:41:56.587Z,5.00
2022-08-26T02:44:23.080Z,5.35
2022-08-26T02:46:49.583Z,5.22
2022-08-26T02:49:16.952Z,4.97
2022-08-26T02:51:43.721Z,5.45
2022-08-26T02:54:10.260Z,5.18
2022-08-26T02:56:37.366Z,6.00
2022-08-26T02:59:04.085Z,5.35
2022-08-26T03:01:34.064Z,5.47
2022-08-26T03:04:02.959Z,4.95
2022-08-26T03:06:29.930Z,5.72
2022-08-26T03:08:56.488Z,5.13
2022-08-26T03:11:23.709Z,5.20
2022-08-26T03:13:51.589Z,5.50
2022-08-26T03:16:18.731Z,5.25
2022-08-26T03:18:52.032Z,5.63
2022-08-26T03:21:20.864Z,5.30
2022-08-26T03:23:47.609Z,4.97
2022-08-26T03:26:15.737Z,4.63
2022-08-26T03:29:01.287Z,4.90
2022-08-26T03:31:29.405Z,5.88
2022-08-26T03:33:59.690Z,5.35
2022-08-26T03:36:26.573Z,4.82
2022-08-26T03:38:53.791Z,4.45
2022-08-26T03:41:21.255Z,4.80
2022-08-26T03:43:50.635Z,4.60
2022-08-26T03:46:18.661Z,4.97
2022-08-26T03:48:45.738Z,4.90
2022-08-26T03:51:19.031Z,5.10
2022-08-26T03:53:46.460Z,4.60
2022-08-26T03:56:12.923Z,4.70
2022-08-26T03:58:39.702Z,4.35
2022-08-26T04:01:13.180Z,4.97
2022-08-26T04:03:57.785Z,4.90
2022-08-26T04:06:29.623Z,5.10
2022-08-26T04:08:57.640Z,5.10
2022-08-26T04:11:31.241Z,4.97
2022-08-26T04:14:04.262Z,5.10
2022-08-26T04:16:31.119Z,4.80
2022-08-26T04:18:58.117Z,5.07
2022-08-26T04:21:26.680Z,5.28
2022-08-26T04:23:54.026Z,5.82
2022-08-26T04:26:22.357Z,5.10
2022-08-26T04:28:51.184Z,5.53
2022-08-26T04:31:18.829Z,4.95
2022-08-26T04:33:47.606Z,5.60
2022-08-26T04:36:17.468Z,6.18
2022-08-26T04:38:46.983Z,5.22
2022-08-26T04:41:15.356Z,5.03
2022-08-26T04:43:45.040Z,5.00
2022-08-26T04:46:13.648Z,4.93
2022-08-26T04:48:41.313Z,5.07
2022-08-26T04:51:09.374Z,4.90
2022-08-26T04:53:36.767Z,5.05
2022-08-26T04:56:04.155Z,5.10
2022-08-26T04:58:31.833Z,5.35
2022-08-26T05:00:58.431Z,5.22
2022-08-26T05:03:27.188Z,5.28
2022-08-26T05:05:57.246Z,6.30
2022-08-26T05:08:24.264Z,5.07
2022-08-26T05:10:56.699Z,5.80
2022-08-26T05:13:27.386Z,6.00
2022-08-26T05:15:54.594Z,5.73
2022-08-26T05:18:27.385Z,5.78
2022-08-26T05:20:54.863Z,6.05
2022-08-26T05:23:23.611Z,5.80
2022-08-26T05:25:55.794Z,5.85
2022-08-26T05:28:25.703Z,5.78
2022-08-26T05:30:53.435Z,5.75
2022-08-26T05:33:20.143Z,4.82
2022-08-26T05:35:47.627Z,5.05
2022-08-26T05:38:18.408Z,5.00
2022-08-26T05:40:48.992Z,5.20
2022-08-26T05:43:20.050Z,5.28
2022-08-26T05:45:49.738Z,5.53
2022-08-26T05:48:22.800Z,5.43
2022-08-26T05:50:52.726Z,5.10
2022-08-26T05:53:21.506Z,5.00
2022-08-26T05:55:50.920Z,5.28
2022-08-26T05:58:22.387Z,5.00
2022-08-26T06:03:35.646Z,5.10
2022-08-26T06:06:08.532Z,5.50
2022-08-26T06:08:37.736Z,5.18
2022-08-26T06:11:07.565Z,5.00
2022-08-26T06:13:40.219Z,5.43
2022-08-26T06:16:12.621Z,5.70
2022-08-26T06:18:42.580Z,5.47
2022-08-26T06:21:16.716Z,5.20
2022-08-26T06:24:03.269Z,5.53
2022-08-26T06:26:30.441Z,4.43
2022-08-26T06:28:57.478Z,5.28
2022-08-26T06:31:25.396Z,4.80
2022-08-26T06:33:52.913Z,5.43
2022-08-26T06:36:22.279Z,4.95
2022-08-26T06:38:51.168Z,5.30
2022-08-26T06:41:21.003Z,5.35
2022-08-26T06:43:48.320Z,4.72
2022-08-26T06:46:17.291Z,4.10
2022-08-26T06:48:44.947Z,4.78
2022-08-26T06:51:14.092Z,4.03
2022-08-26T06:53:43.160Z,4.53
2022-08-26T06:56:10.726Z,3.50
2022-08-26T06:58:38.993Z,4.22
2022-08-26T07:01:16.262Z,3.95
2022-08-26T07:03:46.560Z,3.95
2022-08-26T07:06:13.804Z,3.60
2022-08-26T07:08:40.385Z,4.50
2022-08-26T07:11:09.308Z,3.55
2022-08-26T07:13:37.569Z,3.88
2022-08-26T07:16:06.364Z,3.42
2022-08-26T07:18:35.421Z,3.67
2022-08-26T07:21:06.016Z,3.72
2022-08-26T07:23:34.502Z,3.50
2022-08-26T07:26:05.848Z,3.78
2022-08-26T07:30:59.418Z,3.85
2022-08-26T07:33:25.962Z,3.72
2022-08-26T07:35:52.413Z,3.53
2022-08-26T07:38:18.913Z,3.70
2022-08-26T07:40:45.390Z,3.72
2022-08-26T07:43:11.930Z,3.30
2022-08-26T07:45:38.725Z,4.15
2022-08-26T07:48:05.706Z,3.25
2022-08-26T07:50:49.451Z,3.75
2022-08-26T07:53:18.039Z,3.53
2022-08-26T07:55:46.534Z,3.45
2022-08-26T07:58:13.280Z,3.42
2022-08-26T08:00:39.920Z,3.58
2022-08-26T08:03:08.370Z,3.67
2022-08-26T08:05:36.713Z,3.25
2022-08-26T08:08:27.164Z,4.32
2022-08-26T08:10:53.040Z,3.42
2022-08-26T08:13:19.905Z,3.88
2022-08-26T08:15:46.877Z,3.75
2022-08-26T08:18:16.845Z,3.47
2022-08-26T08:20:47.700Z,4.00
2022-08-26T08:23:25.813Z,3.55
2022-08-26T08:26:01.513Z,3.70
2022-08-26T08:28:28.849Z,4.35
2022-08-26T08:30:56.304Z,3.92
2022-08-26T08:33:22.909Z,4.20
2022-08-26T08:35:49.396Z,4.00
2022-08-26T08:38:16.629Z,4.35
2022-08-26T08:40:45.623Z,4.22
2022-08-26T08:43:17.341Z,4.13
2022-08-26T08:45:57.499Z,4.18
2022-08-26T08:48:29.150Z,3.92
2022-08-26T08:51:04.173Z,3.85
2022-08-26T08:53:38.876Z,3.97
2022-08-26T08:56:31.778Z,3.97
2022-08-26T09:02:20.539Z,4.10
2022-08-26T09:05:05.267Z,3.90
2022-08-26T09:07:37.735Z,3.67
2022-08-26T09:10:12.309Z,4.13
2022-08-26T09:12:38.813Z,4.03
2022-08-26T09:15:14.104Z,4.43
2022-08-26T09:18:10.761Z,4.55
2022-08-26T09:20:43.202Z,4.45
2022-08-26T09:23:12.345Z,4.30
2022-08-26T09:25:57.760Z,4.70
2022-08-26T09:28:27.376Z,4.38
2022-08-26T09:31:19.219Z,4.43
2022-08-26T09:33:45.820Z,4.45
2022-08-26T09:36:44.162Z,4.78
2022-08-26T09:39:25.546Z,4.72
2022-08-26T09:42:20.656Z,4.88
2022-08-26T09:45:03.534Z,5.10
2022-08-26T09:47:33.910Z,4.50
2022-08-26T09:50:12.542Z,5.78
2022-08-26T09:52:40.510Z,5.20
2022-08-26T09:55:09.285Z,5.43
2022-08-26T09:57:45.727Z,5.10
2022-08-26T10:00:33.372Z,5.38
2022-08-26T10:03:03.920Z,5.05
2022-08-26T10:05:44.862Z,4.78
2022-08-26T10:08:31.888Z,5.45
2022-08-26T10:11:02.246Z,4.95
2022-08-26T10:13:35.266Z,5.53
2022-08-26T10:16:10.754Z,5.45
2022-08-26T10:18:42.283Z,5.20
2022-08-26T10:21:23.334Z,5.07
2022-08-26T10:23:55.184Z,5.53
2022-08-26T10:26:35.150Z,5.50
2022-08-26T10:29:19.748Z,5.35
2022-08-26T10:32:03.546Z,5.60
2022-08-26T10:34:32.273Z,5.53
2022-08-26T10:37:10.821Z,5.10
2022-08-26T10:39:57.276Z,5.80
2022-08-26T10:42:38.733Z,5.35
2022-08-26T10:45:11.719Z,5.28
2022-08-26T10:47:48.403Z,5.50
2022-08-26T10:50:18.186Z,4.90
2022-08-26T10:53:01.776Z,6.13
2022-08-26T10:56:18.733Z,5.80
2022-08-26T10:58:45.676Z,5.43
2022-08-26T11:01:42.906Z,5.57
2022-08-26T11:04:20.430Z,5.65
2022-08-26T11:06:49.983Z,5.00
2022-08-26T11:09:45.001Z,5.63
2022-08-26T11:12:36.293Z,5.47
2022-08-26T11:15:30.149Z,5.07
2022-08-26T11:18:03.665Z,5.00
2022-08-26T11:20:30.968Z,5.53
2022-08-26T11:23:17.544Z,5.22
2022-08-26T11:25:57.113Z,4.40
2022-08-26T11:28:46.008Z,4.50
2022-08-26T11:31:25.748Z,4.78
2022-08-26T11:33:58.045Z,4.65
2022-08-26T11:36:54.286Z,5.50
2022-08-26T11:39:28.962Z,4.18
2022-08-26T11:42:03.160Z,5.32
2022-08-26T11:44:39.093Z,4.63
2022-08-26T11:47:11.355Z,5.22
2022-08-26T11:49:39.271Z,4.72
2022-08-26T11:52:20.759Z,5.40
2022-08-26T11:55:20.809Z,5.30
2022-08-26T11:57:54.477Z,4.93
2022-08-26T12:02:51.226Z,4.63
2022-08-26T12:05:29.572Z,5.63
2022-08-26T12:08:02.835Z,4.65
2022-08-26T12:10:33.894Z,5.22
2022-08-26T12:15:30.508Z,4.72
2022-08-26T12:17:57.892Z,4.50
2022-08-26T12:20:46.475Z,4.63
2022-08-26T12:23:28.347Z,4.72
2022-08-26T12:26:13.032Z,4.80
2022-08-26T12:28:49.132Z,5.45
2022-08-26T12:31:35.123Z,4.60
2022-08-26T12:34:05.117Z,4.95
2022-08-26T12:36:37.274Z,4.50
2022-08-26T12:39:09.728Z,4.57
2022-08-26T12:41:51.469Z,4.97
2022-08-26T12:44:33.432Z,4.20
2022-08-26T12:47:09.985Z,4.88
2022-08-26T12:49:39.643Z,5.20
2022-08-26T12:52:29.701Z,4.95
2022-08-26T12:55:18.532Z,4.47
2022-08-26T12:57:45.446Z,4.30
2022-08-26T13:00:31.213Z,4.82
2022-08-26T13:02:59.420Z,4.28
2022-08-26T13:05:32.960Z,4.90
2022-08-26T13:08:26.934Z,4.88
2022-08-26T13:11:10.214Z,5.18
2022-08-26T13:13:37.266Z,5.05
2022-08-26T13:16:05.440Z,5.22
2022-08-26T13:18:31.973Z,4.75
2022-08-26T13:20:58.440Z,5.00
2022-08-26T13:23:25.193Z,4.95
2022-08-26T13:25:51.930Z,4.88
2022-08-26T13:28:18.414Z,5.03
2022-08-26T13:30:47.953Z,5.07
2022-08-26T13:33:16.632Z,4.60
2022-08-26T13:35:44.970Z,4.93
2022-08-26T13:38:33.154Z,5.18
2022-08-26T13:41:00.665Z,5.53
2022-08-26T13:43:27.585Z,5.30
2022-08-26T13:45:54.520Z,5.32
2022-08-26T13:48:23.323Z,5.57
2022-08-26T13:50:50.084Z,5.70
2022-08-26T13:53:17.709Z,6.45
2022-08-26T13:55:44.437Z,5.57
2022-08-26T13:58:11.860Z,5.88
2022-08-26T14:00:39.527Z,5.50
2022-08-26T14:03:11.332Z,5.07
2022-08-26T14:05:39.653Z,5.75
2022-08-26T14:08:06.848Z,5.70
2022-08-26T14:10:33.501Z,6.05
2022-08-26T14:13:00.107Z,5.60
2022-08-26T14:15:27.688Z,5.38
2022-08-26T14:17:55.884Z,5.30
2022-08-26T14:20:26.020Z,5.32
2022-08-26T14:25:40.197Z,6.03
2022-08-26T14:28:06.669Z,5.35
2022-08-26T14:30:33.646Z,6.50
2022-08-26T14:33:00.150Z,5.72
2022-08-26T14:35:29.596Z,4.78
2022-08-26T14:37:57.050Z,5.13
2022-08-26T14:40:28.386Z,5.72
2022-08-26T14:42:55.095Z,5.45
2022-08-26T14:45:27.141Z,5.50
2022-08-26T14:47:56.507Z,5.05
2022-08-26T14:50:25.824Z,5.65
2022-08-26T14:53:11.260Z,5.88
2022-08-26T14:55:40.866Z,6.47
2022-08-26T14:58:08.952Z,5.30
2022-08-26T15:00:36.191Z,5.53
2022-08-26T15:03:02.910Z,4.00
2022-08-26T15:05:29.553Z,3.90
2022-08-26T15:07:56.009Z,4.03
2022-08-26T15:10:22.978Z,3.67
2022-08-26T15:12:49.621Z,3.75
2022-08-26T15:15:18.416Z,4.10
2022-08-26T15:17:45.482Z,4.72
2022-08-26T15:20:12.597Z,3.92
2022-08-26T15:22:40.021Z,7.22
2022-08-26T15:25:07.692Z,7.57
2022-08-26T15:27:34.238Z,7.13
2022-08-26T15:30:02.744Z,7.68
2022-08-26T15:32:30.593Z,5.40
2022-08-26T15:34:57.144Z,5.38
2022-08-26T15:37:23.856Z,5.20
2022-08-26T15:39:50.450Z,7.32
2022-08-26T15:42:17.044Z,6.43
2022-08-26T15:44:46.444Z,6.47
2022-08-26T15:47:13.281Z,5.93
2022-08-26T15:49:40.528Z,8.70
2022-08-26T15:52:07.976Z,10.18
2022-08-26T15:54:35.166Z,11.23
2022-08-26T15:57:04.055Z,9.45
2022-08-26T15:59:31.528Z,10.88
2022-08-26T16:01:59.140Z,11.27
2022-08-26T16:04:26.451Z,11.98
2022-08-26T16:06:53.673Z,11.40
2022-08-26T16:09:26.968Z,14.18
2022-08-26T16:11:55.769Z,14.18
2022-08-26T16:14:23.356Z,16.40
2022-08-26T16:16:50.741Z,15.02
2022-08-26T16:19:17.480Z,16.25
2022-08-26T16:21:44.689Z,16.35
2022-08-26T16:24:12.532Z,12.32
2022-08-26T16:26:40.900Z,11.85
2022-08-26T16:29:14.259Z,8.27
2022-08-26T16:31:42.385Z,8.75
2022-08-26T16:34:09.469Z,8.18
2022-08-26T16:36:38.002Z,8.45
2022-08-26T16:39:06.279Z,7.75
2022-08-26T16:41:33.101Z,9.27
2022-08-26T16:43:59.993Z,9.38
2022-08-26T16:46:27.546Z,9.75
2022-08-26T16:48:55.576Z,8.48
2022-08-26T16:51:24.121Z,8.98
2022-08-26T16:53:51.581Z,8.48
2022-08-26T16:56:21.132Z,8.20
2022-08-26T16:58:50.585Z,9.23
2022-08-26T17:01:17.471Z,9.05
2022-08-26T17:03:44.262Z,9.05
2022-08-26T17:06:11.233Z,9.50
2022-08-26T17:08:38.727Z,10.48
2022-08-26T17:11:05.389Z,11.50
2022-08-26T17:13:35.084Z,11.10
2022-08-26T17:16:04.622Z,10.23
2022-08-26T17:18:32.361Z,8.75
2022-08-26T17:21:05.035Z,9.27
2022-08-26T17:23:31.588Z,8.90
2022-08-26T17:25:58.081Z,8.52
2022-08-26T17:28:24.562Z,10.07
2022-08-26T17:30:51.138Z,9.52
2022-08-26T17:33:18.704Z,10.27
2022-08-26T17:35:51.197Z,10.23
2022-08-26T17:38:17.725Z,9.65
2022-08-26T17:40:44.249Z,9.55
2022-08-26T17:43:12.510Z,9.63
2022-08-26T17:45:40.289Z,10.20
2022-08-26T17:48:07.905Z,8.23
2022-08-26T17:50:34.534Z,9.35
2022-08-26T17:53:01.008Z,11.13
2022-08-26T17:55:27.546Z,5.95
2022-08-26T17:57:54.238Z,8.40
2022-08-26T18:00:26.306Z,7.47
2022-08-26T18:02:56.745Z,9.32
2022-08-26T18:05:23.417Z,9.60
2022-08-26T18:07:51.401Z,10.48
2022-08-26T18:10:19.556Z,11.23
2022-08-26T18:12:46.730Z,8.68
2022-08-26T18:15:15.208Z,9.88
2022-08-26T18:17:42.199Z,10.48
2022-08-26T18:20:12.238Z,7.82
2022-08-26T18:22:38.968Z,7.72
2022-08-26T18:25:07.237Z,7.68
2022-08-26T18:27:35.972Z,6.88
2022-08-26T18:30:06.249Z,6.70
2022-08-26T18:32:32.792Z,6.55
2022-08-26T18:34:59.681Z,8.00
2022-08-26T18:37:29.403Z,6.70
2022-08-26T18:39:59.444Z,8.82
2022-08-26T18:42:26.633Z,6.13
2022-08-26T18:44:53.718Z,7.40
2022-08-26T18:47:20.301Z,7.82
2022-08-26T18:49:47.245Z,9.30
2022-08-26T18:52:13.808Z,8.55
2022-08-26T18:54:40.369Z,8.60
2022-08-26T18:57:07.160Z,9.25
2022-08-26T18:59:33.652Z,8.43
2022-08-26T19:02:00.266Z,8.60
2022-08-26T19:04:27.097Z,9.32
2022-08-26T19:06:53.869Z,10.40
2022-08-26T19:09:21.100Z,10.98
2022-08-26T19:11:49.808Z,10.88
2022-08-26T19:14:17.758Z,11.07
2022-08-26T19:16:48.090Z,10.40
2022-08-26T19:19:15.313Z,10.45
2022-08-26T19:21:41.880Z,9.93
2022-08-26T19:24:15.189Z,11.18
2022-08-26T19:26:46.708Z,11.45
2022-08-26T19:31:41.339Z,13.75
2022-08-26T19:34:10.909Z,11.98
2022-08-26T19:36:38.120Z,11.68
2022-08-26T19:39:08.115Z,12.05
2022-08-26T19:41:37.908Z,10.95
2022-08-26T19:44:10.641Z,11.52
2022-08-26T19:49:05.897Z,12.68
2022-08-26T19:51:34.860Z,11.57
2022-08-26T19:54:01.938Z,11.02
2022-08-26T19:56:29.204Z,10.77
2022-08-26T19:58:56.433Z,12.57
2022-08-26T20:01:24.006Z,12.00
2022-08-26T20:03:50.658Z,12.25
2022-08-26T20:06:17.788Z,13.00
2022-08-26T20:08:44.788Z,13.13
2022-08-26T20:11:15.740Z,13.10
2022-08-26T20:13:43.026Z,13.57
2022-08-26T20:16:11.799Z,12.63
2022-08-26T20:18:58.359Z,13.73
2022-08-26T20:21:29.106Z,15.25
2022-08-26T20:24:00.343Z,15.40
2022-08-26T20:26:28.824Z,14.05
2022-08-26T20:28:56.421Z,15.90
2022-08-26T20:31:23.683Z,16.50
2022-08-26T20:33:51.494Z,15.88
2022-08-26T20:36:20.561Z,16.38
2022-08-26T20:38:48.314Z,17.20
2022-08-26T20:41:15.734Z,17.95
2022-08-26T20:43:42.758Z,20.05
2022-08-26T20:46:18.110Z,20.33
2022-08-26T20:48:47.267Z,17.88
2022-08-26T20:51:13.869Z,17.70
2022-08-26T20:53:41.326Z,17.48
2022-08-26T20:56:09.411Z,16.38
2022-08-26T20:58:36.069Z,18.10
2022-08-26T21:01:07.357Z,16.98
2022-08-26T21:03:34.748Z,17.35
2022-08-26T21:06:03.065Z,19.73
2022-08-26T21:08:29.560Z,19.02
2022-08-26T21:10:56.073Z,18.67
2022-08-26T21:13:22.668Z,18.90
2022-08-26T21:15:49.185Z,20.60
2022-08-26T21:18:15.731Z,19.58
2022-08-26T21:20:42.255Z,19.85
2022-08-26T21:23:08.768Z,18.23
2022-08-26T21:25:35.265Z,18.13
2022-08-26T21:28:01.716Z,18.05
2022-08-26T21:30:28.734Z,17.70
2022-08-26T21:32:55.280Z,17.15
2022-08-26T21:35:21.815Z,16.02
2022-08-26T21:37:48.680Z,16.25
2022-08-26T21:40:15.243Z,17.63
2022-08-26T21:42:41.781Z,16.85
2022-08-26T21:45:08.785Z,17.60
2022-08-26T21:47:36.339Z,17.75
2022-08-26T21:50:03.789Z,18.00
2022-08-26T21:52:30.331Z,17.83
2022-08-26T21:55:01.479Z,17.52
2022-08-26T21:57:29.117Z,20.20
2022-08-26T21:59:55.981Z,18.52
2022-08-26T22:02:22.663Z,17.50
2022-08-26T22:04:49.605Z,18.30
2022-08-26T22:07:17.315Z,19.08
2022-08-26T22:09:44.567Z,20.30
2022-08-26T22:12:12.713Z,17.98
2022-08-26T22:14:39.693Z,18.67
2022-08-26T22:17:06.362Z,19.02
2022-08-26T22:19:32.857Z,20.35
2022-08-26T22:22:00.868Z,21.92
2022-08-26T22:24:27.762Z,20.77
2022-08-26T22:26:55.183Z,24.38
2022-08-26T22:29:21.820Z,25.05
2022-08-26T22:31:48.355Z,27.38
2022-08-26T22:34:17.220Z,32.60
2022-08-26T22:36:45.566Z,34.42
2022-08-26T22:39:13.612Z,36.65
2022-08-26T22:41:42.871Z,36.58
2022-08-26T22:44:11.539Z,36.80
2022-08-26T22:46:38.563Z,37.85
2022-08-26T22:49:06.378Z,35.50
2022-08-26T22:51:33.218Z,37.85
2022-08-26T22:54:00.356Z,36.78
2022-08-26T22:56:26.849Z,36.28
2022-08-26T22:58:53.343Z,34.78
2022-08-26T23:01:20.176Z,35.17
2022-08-26T23:03:46.819Z,36.17
2022-08-26T23:06:13.538Z,37.63
2022-08-26T23:08:41.725Z,35.08
2022-08-26T23:11:10.506Z,35.42
2022-08-26T23:13:37.841Z,34.83
2022-08-26T23:16:10.981Z,34.28
2022-08-26T23:18:38.524Z,33.58
2022-08-26T23:21:05.138Z,33.38
2022-08-26T23:23:32.160Z,31.65
2022-08-26T23:25:58.665Z,32.88
2022-08-26T23:28:25.684Z,30.90
2022-08-26T23:30:53.547Z,34.33
2022-08-26T23:33:20.412Z,33.45
2022-08-26T23:35:46.921Z,29.80
2022-08-26T23:38:14.380Z,30.13
2022-08-26T23:40:41.861Z,32.13
2022-08-26T23:43:11.381Z,34.17
2022-08-26T23:45:38.393Z,33.13
2022-08-26T23:48:05.741Z,32.38
2022-08-26T23:50:51.468Z,31.35
2022-08-26T23:53:21.578Z,29.73
2022-08-26T23:55:50.470Z,29.52
2022-08-26T23:58:18.771Z,29.15
